Kezdőlap
METAR-TAF:

METAR-TAF

Repülőterek :

De Aar, Dél-afrikai Köztársaság

földrajzi szélesség: 30-40-29S, földrajzi hosszúság: 23-59-57E, magasság: 1286 m

Jelenlegi meteorológiai megfigyelések

A jelentés 2 órával és 0 perccel ezelõtt készült, 06:41 UTC
Déli szél 2 kt
Hőmérséklet 13°C
Páratartalom 51%
Légköri nyomás 1026 hPa
Látótávolság 10 km, vagy több
felhőtlen 1500 m magasságban, és nincs gomolyfelhõ

METAR: FADY 260641Z 17002KT CAVOK 13/03 Q1026

Idő: 10:41 (08:41 UTC)


TAF: hiányzik

Meteorológiai megfigyelések és előrejelzések több, mint 4000 repülőtéren (METAR és TAF jelentéseket).

A térképen piros és sárga pontok jelzik az elérhető meteorológiai állomásokat.

Mozgassa az egeret a pont fölött, hogy megjelenjen az állomás neve.

Azután kattintson az időjárási megfigyelések és előrejelzések megtekintéséhez.

A térkép megváltoztatása: kattintson a fekete keresztel jelölt zöld gombra ráközelítéshez, a vonallal jelölt zöld gombra távolításhoz, vagy a zöld nyilakra a szomszédos térképek eléréséhez.


METAR-TAF: